createdAt,value
2019-03-11T00:01:24.000Z,38.056
2019-03-11T00:11:24.000Z,38.041
2019-03-11T00:21:24.000Z,38.037
2019-03-11T00:31:24.000Z,37.913
2019-03-11T00:41:24.000Z,37.78
2019-03-11T00:51:24.000Z,37.732
2019-03-11T01:01:24.000Z,37.793
2019-03-11T01:11:24.000Z,37.669
2019-03-11T01:21:25.000Z,37.731
2019-03-11T01:31:25.000Z,37.554
2019-03-11T01:41:24.000Z,37.551
2019-03-11T01:51:25.000Z,37.676
2019-03-11T02:01:25.000Z,37.522
2019-03-11T02:11:26.000Z,37.402
2019-03-11T02:21:25.000Z,37.495
2019-03-11T02:31:25.000Z,37.352
2019-03-11T02:41:25.000Z,37.371
2019-03-11T02:51:25.000Z,37.248
2019-03-11T03:01:25.000Z,37.268
2019-03-11T03:11:25.000Z,37.362
2019-03-11T03:21:25.000Z,37.282
2019-03-11T03:31:25.000Z,37.226
2019-03-11T03:41:25.000Z,37.159
2019-03-11T03:51:25.000Z,37.177
2019-03-11T04:01:25.000Z,37.121
2019-03-11T04:11:25.000Z,37.032
2019-03-11T04:21:25.000Z,37.083
2019-03-11T04:31:25.000Z,37.081
2019-03-11T04:41:25.000Z,37.132
2019-03-11T04:51:25.000Z,37.14
2019-03-11T05:01:26.000Z,37.009
2019-03-11T05:11:25.000Z,36.953
2019-03-11T05:21:25.000Z,36.853
2019-03-11T05:31:25.000Z,36.734
2019-03-11T05:41:25.000Z,36.689
2019-03-11T05:51:25.000Z,36.632
2019-03-11T06:01:25.000Z,36.599
2019-03-11T06:11:25.000Z,36.553
2019-03-11T06:21:25.000Z,36.487
2019-03-11T06:31:25.000Z,36.421
2019-03-11T06:41:25.000Z,36.216
2019-03-11T06:51:25.000Z,36.15
2019-03-11T07:01:25.000Z,35.955
2019-03-11T07:11:25.000Z,35.921
2019-03-11T07:21:26.000Z,36.104
2019-03-11T07:31:25.000Z,36.248
2019-03-11T07:41:25.000Z,36.203
2019-03-11T07:51:25.000Z,36.256
2019-03-11T08:01:25.000Z,35.875
2019-03-11T08:11:25.000Z,35.833
2019-03-11T08:21:25.000Z,35.58
2019-03-11T08:31:25.000Z,36.09
2019-03-11T08:41:25.000Z,35.815
2019-03-11T08:51:25.000Z,35.661
2019-03-11T09:01:25.000Z,35.693
2019-03-11T09:11:25.000Z,35.51
2019-03-11T09:21:25.000Z,35.499
2019-03-11T09:31:25.000Z,35.294
2019-03-11T09:41:26.000Z,35.241
2019-03-11T09:51:26.000Z,35.176
2019-03-11T10:01:26.000Z,35.015
2019-03-11T10:11:26.000Z,34.908
2019-03-11T10:21:27.000Z,34.79
2019-03-11T10:31:26.000Z,34.834
2019-03-11T10:41:26.000Z,34.762
2019-03-11T10:51:26.000Z,34.713
2019-03-11T11:01:26.000Z,34.65
2019-03-11T11:11:26.000Z,34.65
2019-03-11T11:21:26.000Z,34.424
2019-03-11T11:31:26.000Z,34.335
2019-03-11T11:41:26.000Z,34.196
2019-03-11T11:51:26.000Z,34.131
2019-03-11T12:01:26.000Z,33.97
2019-03-11T12:11:26.000Z,33.841
2019-03-11T12:21:26.000Z,33.744
2019-03-11T12:31:26.000Z,33.614
2019-03-11T12:41:26.000Z,33.399
2019-03-11T12:51:26.000Z,33.432
2019-03-11T13:01:26.000Z,33.378
2019-03-11T13:11:30.000Z,33.26
2019-03-11T13:21:26.000Z,33.14
2019-03-11T13:31:26.000Z,33.13
2019-03-11T13:51:26.000Z,32.967
2019-03-11T14:01:26.000Z,32.803
2019-03-11T14:11:26.000Z,32.958
2019-03-11T14:21:26.000Z,32.968
2019-03-11T14:31:26.000Z,32.925
2019-03-11T14:41:26.000Z,32.818
2019-03-11T14:51:26.000Z,32.915
2019-03-11T15:01:26.000Z,32.829
2019-03-11T15:11:26.000Z,32.764
2019-03-11T15:21:26.000Z,32.753
2019-03-11T15:31:26.000Z,32.763
2019-03-11T15:41:26.000Z,32.839
2019-03-11T15:51:26.000Z,32.698
2019-03-11T16:01:27.000Z,32.578
2019-03-11T16:11:26.000Z,32.73
2019-03-11T16:21:26.000Z,32.696
2019-03-11T16:31:26.000Z,32.587
2019-03-11T16:41:26.000Z,32.5
2019-03-11T16:51:26.000Z,32.565
2019-03-11T17:01:26.000Z,32.764
2019-03-11T17:11:26.000Z,32.952
2019-03-11T17:21:26.000Z,33.087
2019-03-11T17:31:26.000Z,33.234
2019-03-11T17:41:26.000Z,33.563
2019-03-11T17:51:26.000Z,33.577
2019-03-11T18:01:26.000Z,33.661
2019-03-11T18:11:27.000Z,33.902
2019-03-11T18:21:27.000Z,33.948
2019-03-11T18:31:27.000Z,33.902
2019-03-11T18:41:27.000Z,33.916
2019-03-11T18:51:27.000Z,33.883
2019-03-11T19:01:27.000Z,33.993
2019-03-11T19:11:27.000Z,33.941
2019-03-11T19:21:27.000Z,34.215
2019-03-11T19:31:27.000Z,34.257
2019-03-11T19:41:28.000Z,34.2
2019-03-11T19:51:27.000Z,37.287
2019-03-11T20:01:27.000Z,36.522
2019-03-11T20:11:27.000Z,36.291
2019-03-11T20:21:27.000Z,36.33
2019-03-11T20:31:27.000Z,36.463
2019-03-11T20:41:27.000Z,36.966
2019-03-11T20:51:30.000Z,36.814
2019-03-11T21:01:27.000Z,36.639
2019-03-11T21:11:27.000Z,36.891
2019-03-11T21:21:27.000Z,37.159
2019-03-11T21:31:27.000Z,37.245
2019-03-11T21:41:27.000Z,37.2
2019-03-11T21:51:27.000Z,36.893
2019-03-11T22:01:27.000Z,36.814
2019-03-11T22:11:27.000Z,36.843
2019-03-11T22:21:27.000Z,36.743
2019-03-11T22:31:27.000Z,36.611
2019-03-11T22:41:29.000Z,36.64
2019-03-11T22:51:27.000Z,36.496
2019-03-11T23:01:27.000Z,36.546
2019-03-11T23:11:28.000Z,36.586
2019-03-11T23:21:27.000Z,36.561
2019-03-11T23:31:27.000Z,36.59
2019-03-11T23:41:27.000Z,36.49
2019-03-11T23:51:28.000Z,36.519
